sensor_id;sensor_type;location;lat;lon;timestamp;temperature;humidity
18753;DHT22;9505;50.882;5.350;2023-09-18T00:00:21;18.90;99.90
18753;DHT22;9505;50.882;5.350;2023-09-18T00:02:47;19.00;99.90
18753;DHT22;9505;50.882;5.350;2023-09-18T00:05:13;19.00;99.90
18753;DHT22;9505;50.882;5.350;2023-09-18T00:07:42;19.00;99.90
18753;DHT22;9505;50.882;5.350;2023-09-18T00:10:11;19.10;99.90
18753;DHT22;9505;50.882;5.350;2023-09-18T00:12:37;19.10;99.90
18753;DHT22;9505;50.882;5.350;2023-09-18T00:15:05;19.10;99.90
18753;DHT22;9505;50.882;5.350;2023-09-18T00:17:31;19.20;99.90
18753;DHT22;9505;50.882;5.350;2023-09-18T00:19:57;19.20;99.90
18753;DHT22;9505;50.882;5.350;2023-09-18T00:22:22;19.20;99.90
18753;DHT22;9505;50.882;5.350;2023-09-18T00:24:50;19.10;99.90
18753;DHT22;9505;50.882;5.350;2023-09-18T00:27:15;19.10;99.90
18753;DHT22;9505;50.882;5.350;2023-09-18T00:29:42;19.10;99.90
18753;DHT22;9505;50.882;5.350;2023-09-18T00:32:08;19.10;99.90
18753;DHT22;9505;50.882;5.350;2023-09-18T00:34:33;19.10;99.90
18753;DHT22;9505;50.882;5.350;2023-09-18T00:36:59;19.10;99.90
18753;DHT22;9505;50.882;5.350;2023-09-18T00:39:26;19.10;99.90
18753;DHT22;9505;50.882;5.350;2023-09-18T00:41:51;19.10;99.90
18753;DHT22;9505;50.882;5.350;2023-09-18T00:44:23;19.10;99.90
18753;DHT22;9505;50.882;5.350;2023-09-18T00:46:50;19.10;99.90
18753;DHT22;9505;50.882;5.350;2023-09-18T00:49:17;19.10;99.90
18753;DHT22;9505;50.882;5.350;2023-09-18T00:51:44;19.00;99.90
18753;DHT22;9505;50.882;5.350;2023-09-18T00:54:10;19.00;99.90
18753;DHT22;9505;50.882;5.350;2023-09-18T00:56:36;18.90;99.90
18753;DHT22;9505;50.882;5.350;2023-09-18T00:59:02;19.00;99.90
18753;DHT22;9505;50.882;5.350;2023-09-18T01:01:28;19.00;99.90
18753;DHT22;9505;50.882;5.350;2023-09-18T01:03:56;19.00;99.90
18753;DHT22;9505;50.882;5.350;2023-09-18T01:06:25;19.00;99.90
18753;DHT22;9505;50.882;5.350;2023-09-18T01:08:53;19.00;99.90
18753;DHT22;9505;50.882;5.350;2023-09-18T01:11:28;19.00;99.90
18753;DHT22;9505;50.882;5.350;2023-09-18T01:14:09;19.00;99.90
18753;DHT22;9505;50.882;5.350;2023-09-18T01:16:41;19.00;99.90
18753;DHT22;9505;50.882;5.350;2023-09-18T01:19:09;19.00;99.90
18753;DHT22;9505;50.882;5.350;2023-09-18T01:21:35;19.00;99.90
18753;DHT22;9505;50.882;5.350;2023-09-18T01:24:01;19.00;99.90
18753;DHT22;9505;50.882;5.350;2023-09-18T01:26:26;19.10;99.90
18753;DHT22;9505;50.882;5.350;2023-09-18T01:28:52;19.10;99.90
18753;DHT22;9505;50.882;5.350;2023-09-18T01:31:18;19.10;99.90
18753;DHT22;9505;50.882;5.350;2023-09-18T01:33:44;19.20;99.90
18753;DHT22;9505;50.882;5.350;2023-09-18T01:36:13;19.20;99.90
18753;DHT22;9505;50.882;5.350;2023-09-18T01:38:40;19.30;99.90
18753;DHT22;9505;50.882;5.350;2023-09-18T01:41:06;19.20;99.90
18753;DHT22;9505;50.882;5.350;2023-09-18T01:43:32;19.20;99.90
18753;DHT22;9505;50.882;5.350;2023-09-18T01:45:58;19.20;99.90
18753;DHT22;9505;50.882;5.350;2023-09-18T01:48:23;19.20;99.90
18753;DHT22;9505;50.882;5.350;2023-09-18T01:50:49;19.10;99.90
18753;DHT22;9505;50.882;5.350;2023-09-18T01:53:15;19.20;99.90
18753;DHT22;9505;50.882;5.350;2023-09-18T01:55:40;19.50;99.90
18753;DHT22;9505;50.882;5.350;2023-09-18T01:58:06;19.90;99.90
18753;DHT22;9505;50.882;5.350;2023-09-18T02:00:32;20.20;99.90
18753;DHT22;9505;50.882;5.350;2023-09-18T02:02:59;20.40;99.90
18753;DHT22;9505;50.882;5.350;2023-09-18T02:05:24;20.50;99.90
18753;DHT22;9505;50.882;5.350;2023-09-18T02:07:50;20.70;99.90
18753;DHT22;9505;50.882;5.350;2023-09-18T02:10:16;20.90;99.90
18753;DHT22;9505;50.882;5.350;2023-09-18T02:12:42;21.00;99.90
18753;DHT22;9505;50.882;5.350;2023-09-18T02:15:07;21.00;99.90
18753;DHT22;9505;50.882;5.350;2023-09-18T02:17:35;21.00;99.90
18753;DHT22;9505;50.882;5.350;2023-09-18T02:20:01;21.00;99.90
18753;DHT22;9505;50.882;5.350;2023-09-18T02:22:32;20.90;99.90
18753;DHT22;9505;50.882;5.350;2023-09-18T02:24:58;20.80;99.90
18753;DHT22;9505;50.882;5.350;2023-09-18T02:27:24;20.80;99.90
18753;DHT22;9505;50.882;5.350;2023-09-18T02:29:49;20.80;99.90
18753;DHT22;9505;50.882;5.350;2023-09-18T02:32:17;20.70;99.90
18753;DHT22;9505;50.882;5.350;2023-09-18T02:34:44;20.60;99.90
18753;DHT22;9505;50.882;5.350;2023-09-18T02:37:10;20.50;99.90
18753;DHT22;9505;50.882;5.350;2023-09-18T02:39:35;20.40;99.90
18753;DHT22;9505;50.882;5.350;2023-09-18T02:42:01;20.40;99.90
18753;DHT22;9505;50.882;5.350;2023-09-18T02:44:27;20.30;99.90
18753;DHT22;9505;50.882;5.350;2023-09-18T02:46:52;20.10;99.90
18753;DHT22;9505;50.882;5.350;2023-09-18T02:49:18;20.10;99.90
18753;DHT22;9505;50.882;5.350;2023-09-18T02:51:43;20.00;99.90
18753;DHT22;9505;50.882;5.350;2023-09-18T02:54:09;20.10;99.90
18753;DHT22;9505;50.882;5.350;2023-09-18T02:56:35;20.10;99.90
18753;DHT22;9505;50.882;5.350;2023-09-18T02:59:00;20.10;99.90
18753;DHT22;9505;50.882;5.350;2023-09-18T03:01:26;20.10;99.90
18753;DHT22;9505;50.882;5.350;2023-09-18T03:03:52;20.00;99.90
18753;DHT22;9505;50.882;5.350;2023-09-18T03:06:17;20.10;99.90
18753;DHT22;9505;50.882;5.350;2023-09-18T03:08:43;20.10;99.90
18753;DHT22;9505;50.882;5.350;2023-09-18T03:11:13;20.10;99.90
18753;DHT22;9505;50.882;5.350;2023-09-18T03:13:43;20.10;99.90
18753;DHT22;9505;50.882;5.350;2023-09-18T03:16:11;20.10;99.90
18753;DHT22;9505;50.882;5.350;2023-09-18T03:18:37;20.10;99.90
18753;DHT22;9505;50.882;5.350;2023-09-18T03:21:03;20.10;99.90
18753;DHT22;9505;50.882;5.350;2023-09-18T03:23:29;20.10;99.90
18753;DHT22;9505;50.882;5.350;2023-09-18T03:25:55;20.10;99.90
18753;DHT22;9505;50.882;5.350;2023-09-18T03:28:20;20.10;99.90
18753;DHT22;9505;50.882;5.350;2023-09-18T03:30:46;20.20;99.90
18753;DHT22;9505;50.882;5.350;2023-09-18T03:33:12;20.20;99.90
18753;DHT22;9505;50.882;5.350;2023-09-18T03:35:48;20.20;99.90
18753;DHT22;9505;50.882;5.350;2023-09-18T03:38:14;20.20;99.90
18753;DHT22;9505;50.882;5.350;2023-09-18T03:40:40;20.20;99.90
18753;DHT22;9505;50.882;5.350;2023-09-18T03:43:06;20.20;99.90
18753;DHT22;9505;50.882;5.350;2023-09-18T03:45:32;20.30;99.90
18753;DHT22;9505;50.882;5.350;2023-09-18T03:47:58;20.40;99.90
18753;DHT22;9505;50.882;5.350;2023-09-18T03:50:24;20.40;99.90
18753;DHT22;9505;50.882;5.350;2023-09-18T03:52:49;20.40;99.90
18753;DHT22;9505;50.882;5.350;2023-09-18T03:55:15;20.40;99.90
18753;DHT22;9505;50.882;5.350;2023-09-18T03:57:42;20.40;99.90
18753;DHT22;9505;50.882;5.350;2023-09-18T04:00:08;20.40;99.90
18753;DHT22;9505;50.882;5.350;2023-09-18T04:02:33;20.40;99.90
18753;DHT22;9505;50.882;5.350;2023-09-18T04:05:00;20.40;99.90
18753;DHT22;9505;50.882;5.350;2023-09-18T04:07:26;20.40;99.90
18753;DHT22;9505;50.882;5.350;2023-09-18T04:09:51;20.40;99.90
18753;DHT22;9505;50.882;5.350;2023-09-18T04:12:17;20.40;99.90
18753;DHT22;9505;50.882;5.350;2023-09-18T04:14:43;20.40;99.90
18753;DHT22;9505;50.882;5.350;2023-09-18T04:17:08;20.40;99.90
18753;DHT22;9505;50.882;5.350;2023-09-18T04:19:34;20.30;99.90
18753;DHT22;9505;50.882;5.350;2023-09-18T04:22:00;20.30;99.90
18753;DHT22;9505;50.882;5.350;2023-09-18T04:24:26;20.20;99.90
18753;DHT22;9505;50.882;5.350;2023-09-18T04:26:51;20.20;99.90
18753;DHT22;9505;50.882;5.350;2023-09-18T04:29:18;20.10;99.90
18753;DHT22;9505;50.882;5.350;2023-09-18T04:31:44;20.10;99.90
18753;DHT22;9505;50.882;5.350;2023-09-18T04:34:10;20.00;99.90
18753;DHT22;9505;50.882;5.350;2023-09-18T04:36:36;20.10;99.90
18753;DHT22;9505;50.882;5.350;2023-09-18T04:39:03;20.10;99.90
18753;DHT22;9505;50.882;5.350;2023-09-18T04:41:30;20.10;99.90
18753;DHT22;9505;50.882;5.350;2023-09-18T04:43:56;20.10;99.90
18753;DHT22;9505;50.882;5.350;2023-09-18T04:46:21;20.10;99.90
18753;DHT22;9505;50.882;5.350;2023-09-18T04:48:48;20.10;99.90
18753;DHT22;9505;50.882;5.350;2023-09-18T04:51:14;20.00;99.90
18753;DHT22;9505;50.882;5.350;2023-09-18T04:53:39;20.10;99.90
18753;DHT22;9505;50.882;5.350;2023-09-18T04:56:05;20.10;99.90
18753;DHT22;9505;50.882;5.350;2023-09-18T04:58:31;20.10;99.90
18753;DHT22;9505;50.882;5.350;2023-09-18T05:00:58;20.00;99.90
18753;DHT22;9505;50.882;5.350;2023-09-18T05:03:25;20.00;99.90
18753;DHT22;9505;50.882;5.350;2023-09-18T05:05:52;20.00;99.90
18753;DHT22;9505;50.882;5.350;2023-09-18T05:08:18;20.00;99.90
18753;DHT22;9505;50.882;5.350;2023-09-18T05:10:45;19.90;99.90
18753;DHT22;9505;50.882;5.350;2023-09-18T05:13:11;19.80;99.90
18753;DHT22;9505;50.882;5.350;2023-09-18T05:15:37;19.70;99.90
18753;DHT22;9505;50.882;5.350;2023-09-18T05:18:03;19.70;99.90
18753;DHT22;9505;50.882;5.350;2023-09-18T05:20:30;19.70;99.90
18753;DHT22;9505;50.882;5.350;2023-09-18T05:22:58;19.50;99.90
18753;DHT22;9505;50.882;5.350;2023-09-18T05:25:25;19.60;99.90
18753;DHT22;9505;50.882;5.350;2023-09-18T05:27:52;19.60;99.90
18753;DHT22;9505;50.882;5.350;2023-09-18T05:30:28;19.60;99.90
18753;DHT22;9505;50.882;5.350;2023-09-18T05:32:55;19.60;99.90
18753;DHT22;9505;50.882;5.350;2023-09-18T05:35:21;19.60;99.90
18753;DHT22;9505;50.882;5.350;2023-09-18T05:37:49;19.60;99.90
18753;DHT22;9505;50.882;5.350;2023-09-18T05:40:16;19.60;99.90
18753;DHT22;9505;50.882;5.350;2023-09-18T05:42:42;19.60;99.90
18753;DHT22;9505;50.882;5.350;2023-09-18T05:45:12;19.60;99.90
18753;DHT22;9505;50.882;5.350;2023-09-18T05:47:39;19.60;99.90
18753;DHT22;9505;50.882;5.350;2023-09-18T05:50:08;19.60;99.90
18753;DHT22;9505;50.882;5.350;2023-09-18T05:52:34;19.50;99.90
18753;DHT22;9505;50.882;5.350;2023-09-18T05:55:04;19.60;99.90
18753;DHT22;9505;50.882;5.350;2023-09-18T05:57:30;19.50;99.90
18753;DHT22;9505;50.882;5.350;2023-09-18T05:59:56;19.50;99.90
18753;DHT22;9505;50.882;5.350;2023-09-18T06:02:22;19.50;99.90
18753;DHT22;9505;50.882;5.350;2023-09-18T06:04:48;19.50;99.90
18753;DHT22;9505;50.882;5.350;2023-09-18T06:07:14;19.40;99.90
18753;DHT22;9505;50.882;5.350;2023-09-18T06:09:40;19.40;99.90
18753;DHT22;9505;50.882;5.350;2023-09-18T06:12:07;19.50;99.90
18753;DHT22;9505;50.882;5.350;2023-09-18T06:14:32;19.50;99.90
18753;DHT22;9505;50.882;5.350;2023-09-18T06:17:04;19.60;99.90
18753;DHT22;9505;50.882;5.350;2023-09-18T06:19:29;19.60;99.90
18753;DHT22;9505;50.882;5.350;2023-09-18T06:21:55;19.60;99.90
18753;DHT22;9505;50.882;5.350;2023-09-18T06:24:21;19.60;99.90
18753;DHT22;9505;50.882;5.350;2023-09-18T06:26:47;19.70;99.90
18753;DHT22;9505;50.882;5.350;2023-09-18T06:29:13;19.70;99.90
18753;DHT22;9505;50.882;5.350;2023-09-18T06:31:38;19.70;99.90
18753;DHT22;9505;50.882;5.350;2023-09-18T06:34:04;19.70;99.90
18753;DHT22;9505;50.882;5.350;2023-09-18T06:36:30;19.70;99.90
18753;DHT22;9505;50.882;5.350;2023-09-18T06:38:56;19.70;99.90
18753;DHT22;9505;50.882;5.350;2023-09-18T06:41:21;19.80;99.90
18753;DHT22;9505;50.882;5.350;2023-09-18T06:43:47;19.90;99.90
18753;DHT22;9505;50.882;5.350;2023-09-18T06:46:12;19.80;99.90
18753;DHT22;9505;50.882;5.350;2023-09-18T06:48:38;19.80;99.90
18753;DHT22;9505;50.882;5.350;2023-09-18T06:51:04;19.90;99.90
18753;DHT22;9505;50.882;5.350;2023-09-18T06:53:31;20.00;99.90
18753;DHT22;9505;50.882;5.350;2023-09-18T06:55:57;20.00;99.90
18753;DHT22;9505;50.882;5.350;2023-09-18T06:58:23;20.10;99.90
18753;DHT22;9505;50.882;5.350;2023-09-18T07:00:48;20.00;99.90
18753;DHT22;9505;50.882;5.350;2023-09-18T07:03:16;19.90;99.90
18753;DHT22;9505;50.882;5.350;2023-09-18T07:05:41;19.80;99.90
18753;DHT22;9505;50.882;5.350;2023-09-18T07:08:08;19.90;99.90
18753;DHT22;9505;50.882;5.350;2023-09-18T07:10:37;20.00;99.90
18753;DHT22;9505;50.882;5.350;2023-09-18T07:13:03;20.00;99.90
18753;DHT22;9505;50.882;5.350;2023-09-18T07:15:29;20.00;99.90
18753;DHT22;9505;50.882;5.350;2023-09-18T07:17:55;19.90;99.90
18753;DHT22;9505;50.882;5.350;2023-09-18T07:20:20;20.10;99.90
18753;DHT22;9505;50.882;5.350;2023-09-18T07:22:48;20.10;99.90
18753;DHT22;9505;50.882;5.350;2023-09-18T07:25:14;20.10;99.90
18753;DHT22;9505;50.882;5.350;2023-09-18T07:27:41;20.10;99.90
18753;DHT22;9505;50.882;5.350;2023-09-18T07:30:11;20.30;99.90
18753;DHT22;9505;50.882;5.350;2023-09-18T07:32:39;20.40;99.90
18753;DHT22;9505;50.882;5.350;2023-09-18T07:35:06;20.60;99.90
18753;DHT22;9505;50.882;5.350;2023-09-18T07:37:33;20.60;99.90
18753;DHT22;9505;50.882;5.350;2023-09-18T07:39:58;20.60;99.90
18753;DHT22;9505;50.882;5.350;2023-09-18T07:42:25;20.70;99.90
18753;DHT22;9505;50.882;5.350;2023-09-18T07:44:51;20.60;99.90
18753;DHT22;9505;50.882;5.350;2023-09-18T07:47:17;20.50;99.90
18753;DHT22;9505;50.882;5.350;2023-09-18T07:49:42;20.30;99.90
18753;DHT22;9505;50.882;5.350;2023-09-18T07:52:08;20.50;99.90
18753;DHT22;9505;50.882;5.350;2023-09-18T07:54:34;20.40;99.90
18753;DHT22;9505;50.882;5.350;2023-09-18T07:56:59;20.40;99.90
18753;DHT22;9505;50.882;5.350;2023-09-18T07:59:25;20.50;99.90
18753;DHT22;9505;50.882;5.350;2023-09-18T08:01:51;20.90;99.90
18753;DHT22;9505;50.882;5.350;2023-09-18T08:04:17;21.20;99.90
18753;DHT22;9505;50.882;5.350;2023-09-18T08:06:43;21.40;99.90
18753;DHT22;9505;50.882;5.350;2023-09-18T08:09:09;21.60;99.90
18753;DHT22;9505;50.882;5.350;2023-09-18T08:11:41;21.80;99.90
18753;DHT22;9505;50.882;5.350;2023-09-18T08:14:09;21.80;99.90
18753;DHT22;9505;50.882;5.350;2023-09-18T08:16:35;21.70;99.90
18753;DHT22;9505;50.882;5.350;2023-09-18T08:19:04;21.50;99.90
18753;DHT22;9505;50.882;5.350;2023-09-18T08:21:29;21.60;99.90
18753;DHT22;9505;50.882;5.350;2023-09-18T08:23:55;21.20;99.90
18753;DHT22;9505;50.882;5.350;2023-09-18T08:26:24;21.10;99.90
18753;DHT22;9505;50.882;5.350;2023-09-18T08:28:50;21.30;99.90
18753;DHT22;9505;50.882;5.350;2023-09-18T08:31:16;21.50;99.90
18753;DHT22;9505;50.882;5.350;2023-09-18T08:33:42;21.80;99.90
18753;DHT22;9505;50.882;5.350;2023-09-18T08:36:08;21.70;99.90
18753;DHT22;9505;50.882;5.350;2023-09-18T08:38:34;21.60;99.90
18753;DHT22;9505;50.882;5.350;2023-09-18T08:41:00;21.60;99.90
18753;DHT22;9505;50.882;5.350;2023-09-18T08:43:26;21.60;99.90
18753;DHT22;9505;50.882;5.350;2023-09-18T08:45:56;22.10;99.90
18753;DHT22;9505;50.882;5.350;2023-09-18T08:48:28;22.40;99.90
18753;DHT22;9505;50.882;5.350;2023-09-18T08:51:04;22.70;99.90
18753;DHT22;9505;50.882;5.350;2023-09-18T08:53:35;22.70;99.90
18753;DHT22;9505;50.882;5.350;2023-09-18T08:56:02;22.60;99.90
18753;DHT22;9505;50.882;5.350;2023-09-18T08:58:36;22.80;99.90
18753;DHT22;9505;50.882;5.350;2023-09-18T09:01:05;22.90;99.90
18753;DHT22;9505;50.882;5.350;2023-09-18T09:03:41;22.90;99.90
18753;DHT22;9505;50.882;5.350;2023-09-18T09:06:08;23.00;99.90
18753;DHT22;9505;50.882;5.350;2023-09-18T09:08:35;23.00;99.90
18753;DHT22;9505;50.882;5.350;2023-09-18T09:11:02;23.30;99.90
18753;DHT22;9505;50.882;5.350;2023-09-18T09:13:28;23.90;99.90
18753;DHT22;9505;50.882;5.350;2023-09-18T09:15:55;23.60;99.90
18753;DHT22;9505;50.882;5.350;2023-09-18T09:18:26;23.60;99.90
18753;DHT22;9505;50.882;5.350;2023-09-18T09:21:00;23.70;99.90
18753;DHT22;9505;50.882;5.350;2023-09-18T09:23:44;23.60;99.90
18753;DHT22;9505;50.882;5.350;2023-09-18T09:26:15;23.70;99.90
18753;DHT22;9505;50.882;5.350;2023-09-18T09:28:42;23.80;99.90
18753;DHT22;9505;50.882;5.350;2023-09-18T09:31:09;23.80;99.90
18753;DHT22;9505;50.882;5.350;2023-09-18T09:33:36;23.70;99.90
18753;DHT22;9505;50.882;5.350;2023-09-18T09:36:05;23.90;99.90
18753;DHT22;9505;50.882;5.350;2023-09-18T09:38:32;24.00;99.90
18753;DHT22;9505;50.882;5.350;2023-09-18T09:41:02;24.30;99.90
18753;DHT22;9505;50.882;5.350;2023-09-18T09:43:31;23.90;99.90
18753;DHT22;9505;50.882;5.350;2023-09-18T09:46:01;23.80;99.90
18753;DHT22;9505;50.882;5.350;2023-09-18T09:48:27;23.80;99.90
18753;DHT22;9505;50.882;5.350;2023-09-18T09:50:58;23.60;99.90
18753;DHT22;9505;50.882;5.350;2023-09-18T09:53:44;23.80;99.90
18753;DHT22;9505;50.882;5.350;2023-09-18T09:56:12;23.70;99.90
18753;DHT22;9505;50.882;5.350;2023-09-18T09:58:38;23.40;99.90
18753;DHT22;9505;50.882;5.350;2023-09-18T10:01:09;23.30;99.90
18753;DHT22;9505;50.882;5.350;2023-09-18T10:03:38;23.40;99.90
18753;DHT22;9505;50.882;5.350;2023-09-18T10:06:04;23.90;99.90
18753;DHT22;9505;50.882;5.350;2023-09-18T10:08:31;23.90;99.90
18753;DHT22;9505;50.882;5.350;2023-09-18T10:11:08;23.60;99.90
18753;DHT22;9505;50.882;5.350;2023-09-18T10:13:48;23.20;99.90
18753;DHT22;9505;50.882;5.350;2023-09-18T10:16:18;22.90;99.90
18753;DHT22;9505;50.882;5.350;2023-09-18T10:24:24;23.00;99.90
18753;DHT22;9505;50.882;5.350;2023-09-18T10:27:00;23.20;99.90
18753;DHT22;9505;50.882;5.350;2023-09-18T10:29:29;23.50;99.90
18753;DHT22;9505;50.882;5.350;2023-09-18T10:31:55;23.90;99.90
18753;DHT22;9505;50.882;5.350;2023-09-18T10:34:23;24.40;99.90
18753;DHT22;9505;50.882;5.350;2023-09-18T10:36:52;24.90;99.90
18753;DHT22;9505;50.882;5.350;2023-09-18T10:39:18;24.70;99.90
18753;DHT22;9505;50.882;5.350;2023-09-18T10:41:54;24.60;99.90
18753;DHT22;9505;50.882;5.350;2023-09-18T10:44:21;25.00;99.90
18753;DHT22;9505;50.882;5.350;2023-09-18T10:46:48;24.90;99.90
18753;DHT22;9505;50.882;5.350;2023-09-18T10:49:15;24.50;99.90
18753;DHT22;9505;50.882;5.350;2023-09-18T10:51:48;24.30;99.90
18753;DHT22;9505;50.882;5.350;2023-09-18T10:54:21;24.80;99.90
18753;DHT22;9505;50.882;5.350;2023-09-18T10:56:48;25.00;99.90
18753;DHT22;9505;50.882;5.350;2023-09-18T10:59:15;25.00;99.90
18753;DHT22;9505;50.882;5.350;2023-09-18T11:01:44;25.10;99.90
18753;DHT22;9505;50.882;5.350;2023-09-18T11:04:11;25.10;99.90
18753;DHT22;9505;50.882;5.350;2023-09-18T11:09:25;24.30;99.90
18753;DHT22;9505;50.882;5.350;2023-09-18T11:17:37;23.30;99.90
18753;DHT22;9505;50.882;5.350;2023-09-18T11:20:09;23.60;99.90
18753;DHT22;9505;50.882;5.350;2023-09-18T11:28:25;24.80;99.90
18753;DHT22;9505;50.882;5.350;2023-09-18T11:30:53;25.10;99.90
18753;DHT22;9505;50.882;5.350;2023-09-18T11:33:38;25.60;99.90
18753;DHT22;9505;50.882;5.350;2023-09-18T11:36:11;25.70;99.90
18753;DHT22;9505;50.882;5.350;2023-09-18T11:38:59;25.60;99.90
18753;DHT22;9505;50.882;5.350;2023-09-18T11:41:31;24.90;99.90
18753;DHT22;9505;50.882;5.350;2023-09-18T11:46:48;24.40;99.90
18753;DHT22;9505;50.882;5.350;2023-09-18T11:49:21;24.20;99.90
18753;DHT22;9505;50.882;5.350;2023-09-18T11:51:52;24.20;99.90
18753;DHT22;9505;50.882;5.350;2023-09-18T11:54:18;24.10;99.90
18753;DHT22;9505;50.882;5.350;2023-09-18T11:56:44;24.30;99.90
18753;DHT22;9505;50.882;5.350;2023-09-18T11:59:10;24.20;99.90
18753;DHT22;9505;50.882;5.350;2023-09-18T12:01:37;23.80;99.90
18753;DHT22;9505;50.882;5.350;2023-09-18T12:04:05;24.10;99.90
18753;DHT22;9505;50.882;5.350;2023-09-18T12:06:38;24.30;99.90
18753;DHT22;9505;50.882;5.350;2023-09-18T12:09:05;24.20;99.90
18753;DHT22;9505;50.882;5.350;2023-09-18T12:11:35;24.20;99.90
18753;DHT22;9505;50.882;5.350;2023-09-18T12:14:04;24.40;99.90
18753;DHT22;9505;50.882;5.350;2023-09-18T12:16:31;24.70;99.90
18753;DHT22;9505;50.882;5.350;2023-09-18T12:18:56;25.10;99.90
18753;DHT22;9505;50.882;5.350;2023-09-18T12:21:22;25.20;99.90
18753;DHT22;9505;50.882;5.350;2023-09-18T12:23:48;25.10;99.90
18753;DHT22;9505;50.882;5.350;2023-09-18T12:26:15;25.10;99.90
18753;DHT22;9505;50.882;5.350;2023-09-18T12:28:42;25.60;99.90
18753;DHT22;9505;50.882;5.350;2023-09-18T12:31:15;26.00;99.90
18753;DHT22;9505;50.882;5.350;2023-09-18T12:33:42;26.20;99.90
18753;DHT22;9505;50.882;5.350;2023-09-18T12:36:09;26.20;99.90
18753;DHT22;9505;50.882;5.350;2023-09-18T12:38:37;25.90;99.90
18753;DHT22;9505;50.882;5.350;2023-09-18T12:41:04;25.60;99.90
18753;DHT22;9505;50.882;5.350;2023-09-18T12:43:40;25.90;99.90
18753;DHT22;9505;50.882;5.350;2023-09-18T12:46:09;25.50;99.90
18753;DHT22;9505;50.882;5.350;2023-09-18T12:48:40;25.20;99.90
18753;DHT22;9505;50.882;5.350;2023-09-18T12:51:11;24.70;99.90
18753;DHT22;9505;50.882;5.350;2023-09-18T12:53:37;25.00;99.90
18753;DHT22;9505;50.882;5.350;2023-09-18T12:56:13;25.40;99.90
18753;DHT22;9505;50.882;5.350;2023-09-18T12:58:39;26.00;99.90
18753;DHT22;9505;50.882;5.350;2023-09-18T13:01:07;26.30;99.90
18753;DHT22;9505;50.882;5.350;2023-09-18T13:03:41;26.40;99.90
18753;DHT22;9505;50.882;5.350;2023-09-18T13:06:14;26.30;99.90
18753;DHT22;9505;50.882;5.350;2023-09-18T13:08:42;26.40;99.90
18753;DHT22;9505;50.882;5.350;2023-09-18T13:11:08;26.00;99.90
18753;DHT22;9505;50.882;5.350;2023-09-18T13:13:36;25.80;99.90
18753;DHT22;9505;50.882;5.350;2023-09-18T13:16:05;25.80;99.90
18753;DHT22;9505;50.882;5.350;2023-09-18T13:18:31;25.90;99.90
18753;DHT22;9505;50.882;5.350;2023-09-18T13:20:57;26.10;99.90
18753;DHT22;9505;50.882;5.350;2023-09-18T13:23:30;26.10;99.90
18753;DHT22;9505;50.882;5.350;2023-09-18T13:26:00;26.20;99.90
18753;DHT22;9505;50.882;5.350;2023-09-18T13:28:26;26.20;99.90
18753;DHT22;9505;50.882;5.350;2023-09-18T13:30:52;26.00;99.90
18753;DHT22;9505;50.882;5.350;2023-09-18T13:33:18;26.10;99.90
18753;DHT22;9505;50.882;5.350;2023-09-18T13:35:45;26.10;99.90
18753;DHT22;9505;50.882;5.350;2023-09-18T13:38:11;25.90;99.90
18753;DHT22;9505;50.882;5.350;2023-09-18T13:40:39;26.20;99.90
18753;DHT22;9505;50.882;5.350;2023-09-18T13:43:06;26.00;99.90
18753;DHT22;9505;50.882;5.350;2023-09-18T13:45:33;25.60;99.90
18753;DHT22;9505;50.882;5.350;2023-09-18T13:48:01;25.70;99.90
18753;DHT22;9505;50.882;5.350;2023-09-18T13:50:27;26.00;99.90
18753;DHT22;9505;50.882;5.350;2023-09-18T13:52:53;25.70;99.90
18753;DHT22;9505;50.882;5.350;2023-09-18T13:55:19;25.80;99.90
18753;DHT22;9505;50.882;5.350;2023-09-18T13:57:45;25.70;99.90
18753;DHT22;9505;50.882;5.350;2023-09-18T14:00:11;25.60;99.90
18753;DHT22;9505;50.882;5.350;2023-09-18T14:02:39;25.50;99.90
18753;DHT22;9505;50.882;5.350;2023-09-18T14:05:06;25.70;99.90
18753;DHT22;9505;50.882;5.350;2023-09-18T14:07:37;26.00;99.90
18753;DHT22;9505;50.882;5.350;2023-09-18T14:10:10;26.60;99.90
18753;DHT22;9505;50.882;5.350;2023-09-18T14:12:39;26.70;99.90
18753;DHT22;9505;50.882;5.350;2023-09-18T14:15:09;26.30;99.90
18753;DHT22;9505;50.882;5.350;2023-09-18T14:17:35;26.90;99.90
18753;DHT22;9505;50.882;5.350;2023-09-18T14:20:03;27.80;99.90
18753;DHT22;9505;50.882;5.350;2023-09-18T14:22:32;28.30;99.90
18753;DHT22;9505;50.882;5.350;2023-09-18T14:24:58;28.80;99.90
18753;DHT22;9505;50.882;5.350;2023-09-18T14:27:24;29.10;99.90
18753;DHT22;9505;50.882;5.350;2023-09-18T14:29:49;27.80;99.90
18753;DHT22;9505;50.882;5.350;2023-09-18T14:32:15;27.40;99.90
18753;DHT22;9505;50.882;5.350;2023-09-18T14:34:41;28.00;99.90
18753;DHT22;9505;50.882;5.350;2023-09-18T14:37:07;28.30;99.90
18753;DHT22;9505;50.882;5.350;2023-09-18T14:39:34;28.30;99.90
18753;DHT22;9505;50.882;5.350;2023-09-18T14:42:00;28.20;99.90
18753;DHT22;9505;50.882;5.350;2023-09-18T14:44:26;28.00;99.90
18753;DHT22;9505;50.882;5.350;2023-09-18T14:46:55;27.60;99.90
18753;DHT22;9505;50.882;5.350;2023-09-18T14:49:21;27.50;99.90
18753;DHT22;9505;50.882;5.350;2023-09-18T14:51:47;27.20;99.90
18753;DHT22;9505;50.882;5.350;2023-09-18T14:54:15;27.20;99.90
18753;DHT22;9505;50.882;5.350;2023-09-18T14:56:40;27.50;99.90
18753;DHT22;9505;50.882;5.350;2023-09-18T14:59:06;28.10;99.90
18753;DHT22;9505;50.882;5.350;2023-09-18T15:01:33;28.30;99.90
18753;DHT22;9505;50.882;5.350;2023-09-18T15:03:59;28.40;99.90
18753;DHT22;9505;50.882;5.350;2023-09-18T15:06:25;27.80;99.90
18753;DHT22;9505;50.882;5.350;2023-09-18T15:08:53;26.20;99.90
18753;DHT22;9505;50.882;5.350;2023-09-18T15:11:18;25.20;99.90
18753;DHT22;9505;50.882;5.350;2023-09-18T15:13:45;24.70;99.90
18753;DHT22;9505;50.882;5.350;2023-09-18T15:16:10;24.30;99.90
18753;DHT22;9505;50.882;5.350;2023-09-18T15:18:36;24.20;99.90
18753;DHT22;9505;50.882;5.350;2023-09-18T15:21:02;24.20;99.90
18753;DHT22;9505;50.882;5.350;2023-09-18T15:23:28;24.00;99.90
18753;DHT22;9505;50.882;5.350;2023-09-18T15:25:55;23.90;99.90
18753;DHT22;9505;50.882;5.350;2023-09-18T15:28:21;23.90;99.90
18753;DHT22;9505;50.882;5.350;2023-09-18T15:30:49;23.90;99.90
18753;DHT22;9505;50.882;5.350;2023-09-18T15:33:15;23.80;99.90
18753;DHT22;9505;50.882;5.350;2023-09-18T15:35:45;23.90;99.90
18753;DHT22;9505;50.882;5.350;2023-09-18T15:38:11;23.90;99.90
18753;DHT22;9505;50.882;5.350;2023-09-18T15:40:37;24.00;99.90
18753;DHT22;9505;50.882;5.350;2023-09-18T15:43:03;23.80;99.90
18753;DHT22;9505;50.882;5.350;2023-09-18T15:45:28;23.70;99.90
18753;DHT22;9505;50.882;5.350;2023-09-18T15:47:54;23.40;99.90
18753;DHT22;9505;50.882;5.350;2023-09-18T15:50:20;23.00;99.90
18753;DHT22;9505;50.882;5.350;2023-09-18T15:52:46;21.90;99.90
18753;DHT22;9505;50.882;5.350;2023-09-18T15:55:13;20.90;99.90
18753;DHT22;9505;50.882;5.350;2023-09-18T15:57:39;20.30;99.90
18753;DHT22;9505;50.882;5.350;2023-09-18T16:00:06;19.90;99.90
18753;DHT22;9505;50.882;5.350;2023-09-18T16:02:33;19.70;99.90
18753;DHT22;9505;50.882;5.350;2023-09-18T16:04:59;19.50;99.90
18753;DHT22;9505;50.882;5.350;2023-09-18T16:07:26;19.40;99.90